Logo .
Méteo
.
.
Històrics
.
.
Atles de núvols
.
.
Glossari
.
.
infoTerrassa
.
.
.

Meteoclimatic 

.
Situació Actual
.

Lectura del 19-06-2018 - 23:00 UTC
Temperatura 21,2ºC
Vent 0km/h de N
Humitat 59.0%
Punt de rosada 13ºC
Pressió 1019,9 hPa (Es manté)
Les hores mostrades en aquesta pàgina estan indicades en temps universal (UTC). Caldrà afegir 2 h. per obtenir l'hora oficial, excepte els dies de canvi d'horari. En aquest cas, dependrà del moment concret.
Extrems d'avui
Temperatura màx. 28,5ºC a les 12:52
Temperatura mín. 19,2ºC a les 02:05
Cop de vent màx. 24 km/h a les 14:59 de SE
Humitat màx. 62% a les 20:33
Humitat mín. 30,2268% a les 12:34
Pressió màx. 1021,5 hPa a les 07:26
Pressió mín. 1019,1 hPa a les 16:38
Pluja recollida (0-24h) 0 mm

Detalls d'avui
Hora Temperatura (ºC) Humitat (%) Pressió (hPa) Vent (km/h, sentit) Punt de rosada (ºC) Pluja
(mm)
Màx. Mín. Mitjana Màx. Mín. Mitjana Màx. Mín. Mitjana Màxim Mitjana Màx. Mín. Mitjana
00:01-00:30 20,9 20,7 20,8 52 51 51 1021 1020 1021 0, N 0, N 11 10 10 0
00:31-01:00 20,7 20,6 20,7 52 51 52 1021 1020 1020 0, N 0, N 11 10 10 0
01:01-01:30 20,6 20,3 20,4 54 52 53 1020 1020 1020 0, N 0, N 11 10 10 0
01:31-02:00 20,2 19,4 19,8 54 53 54 1020 1020 1020 5, NW 1, ENE 11 10 10 0
02:01-02:30 19,3 19,2 19,2 56 54 55 1020 1020 1020 0, NW 0, N 10 10 10 0
02:31-03:00 19,6 19,2 19,3 55 55 55 1020 1020 1020 0, NW 0, N 10 10 10 0
03:01-03:30 20 19,6 19,9 57 55 56 1020 1020 1020 6, N 1, NE 11 10 11 0
03:31-04:00 20 19,6 19,9 57 56 57 1021 1020 1020 0, N 0, N 11 11 11 0
04:01-04:30 19,6 19,3 19,4 60 57 58 1021 1020 1021 0, N 0, N 11 11 11 0
04:31-05:00 19,4 19,3 19,3 60 60 60 1021 1021 1021 0, N 0, N 11 11 11 0
05:01-05:30 19,6 19,4 19,4 60 60 60 1021 1021 1021 0, N 0, N 12 11 11 0
05:31-06:00 20,2 19,6 20 60 58 59 1021 1021 1021 10, NNW 0, NNE 12 12 12 0
06:01-06:30 20,5 20,2 20,4 59 58 58 1021 1021 1021 11, NNE 5, SSW 12 12 12 0
06:31-07:00 21,3 20,5 20,9 58 55 57 1021 1021 1021 8, N 2, NE 12 12 12 0
07:01-07:30 22,4 21,3 21,8 56 52 54 1022 1021 1021 8, SE 1, NNE 12 12 12 0
07:31-08:00 22,8 22,2 22,5 53 50 52 1022 1021 1021 11, NW 5, S 12 12 12 0
08:01-08:30 23,5 22,8 23,1 50 46 48 1021 1021 1021 13, NW 8, NW 12 11 12 0
08:31-09:00 24,2 23,5 23,9 46 41 44 1021 1021 1021 11, WNW 5, WSW 11 10 11 0
09:01-09:30 24,4 24,2 24,3 42 41 42 1021 1021 1021 16, SW 9, WSW 11 10 11 0
09:31-10:00 25 24,5 24,8 41 39 40 1021 1021 1021 14, SW 7, WSW 11 10 10 0
10:01-10:30 25,8 25,1 25,5 40 38 39 1021 1021 1021 14, WSW 7, SW 11 10 10 0
10:31-11:00 26,4 25,8 26,1 40 38 39 1021 1020 1021 18, SW 9, WSW 11 11 11 0
11:01-11:30 27,3 26,4 26,8 40 37 38 1020 1020 1020 13, WSW 6, SW 12 11 12 0
11:31-12:00 27,2 26,9 27 39 37 38 1020 1020 1020 19, SW 8, SW 12 11 11 0
12:01-12:30 28 27,2 27,5 37 33 36 1020 1020 1020 11, WNW 4, S 11 10 11 0
12:31-13:00 28,5 28 28,3 36 30 34 1020 1019 1020 11, SW 4, SSE 12 9 11 0
13:01-13:30 28,2 27 27,7 40 37 38 1020 1019 1019 21, SE 10, SSE 13 12 12 0
13:31-14:00 27,1 26,7 26,9 41 40 41 1020 1019 1020 18, SSE 9, SE 13 12 12 0
14:01-14:30 27,8 27 27,4 41 38 39 1020 1019 1020 13, SE 6, SSE 13 12 12 0
14:31-15:00 28,1 26,6 27,3 42 37 40 1020 1019 1019 24, SE 11, SE 13 12 12 0
15:01-15:30 26,7 26,3 26,5 44 42 43 1020 1019 1019 21, SE 13, SE 13 13 13 0
15:31-16:00 26,7 26,3 26,5 46 44 45 1020 1019 1019 16, SE 11, SE 14 13 14 0
16:01-16:30 26,4 26,2 26,3 46 44 45 1020 1019 1019 16, SE 9, SE 14 13 13 0
16:31-17:00 26,3 25,8 26 45 43 44 1019 1019 1019 13, SE 9, SE 13 12 13 0
17:01-17:30 26,1 25,6 25,9 44 42 43 1019 1019 1019 13, SE 7, SE 13 12 12 0
17:31-18:00 25,8 25,6 25,7 46 43 45 1019 1019 1019 11, SE 5, ESE 13 12 13 0
18:01-18:30 25,5 24,9 25,2 48 46 47 1019 1019 1019 11, SSE 6, SE 13 13 13 0
18:31-19:00 24,9 24,1 24,5 54 48 51 1019 1019 1019 10, SSE 5, E 14 13 14 0
19:01-19:30 24,1 23,4 23,7 57 54 55 1019 1019 1019 8, SSE 1, NNE 14 14 14 0
19:31-20:00 23,3 22,4 22,9 61 57 58 1020 1019 1019 3, SSE 0, N 15 14 14 0
20:01-20:30 22,4 22,1 22,3 61 61 61 1020 1020 1020 0, SSE 0, N 15 14 14 0
20:31-21:00 22,1 21,9 22 62 60 61 1020 1020 1020 0, SSE 0, N 14 14 14 0
21:01-21:30 21,9 21,8 21,9 60 59 59 1020 1020 1020 0, SSE 0, N 14 13 14 0
21:31-22:00 21,9 21,8 21,9 60 58 59 1020 1020 1020 0, SSE 0, N 14 13 13 0
22:01-22:30 21,8 21,3 21,6 59 58 58 1020 1020 1020 1, NNE 0, N 13 13 13 0
22:31-22:59 21,3 21,2 21,3 60 59 60 1020 1020 1020 0, NNE 0, N 13 13 13 0
Les dades d'aquesta taula són els extrems i les mitjanes calculades de cada 30 minuts, excepte la pluja que és el total acumulat de cada semihora.
.
Valid HTML 4.01 Valid CSS1